createdAt,value
2019-05-25T00:04:48.043Z,6.27
2019-05-25T00:09:52.598Z,6.90
2019-05-25T00:14:57.255Z,6.17
2019-05-25T00:20:01.836Z,7.20
2019-05-25T00:25:06.658Z,7.95
2019-05-25T00:30:11.231Z,9.43
2019-05-25T00:35:16.070Z,8.63
2019-05-25T00:40:21.482Z,8.75
2019-05-25T00:45:26.246Z,8.63
2019-05-25T00:50:30.817Z,8.30
2019-05-25T00:55:35.319Z,7.53
2019-05-25T01:00:40.063Z,10.63
2019-05-25T01:05:44.513Z,8.43
2019-05-25T01:10:49.085Z,8.53
2019-05-25T01:15:53.759Z,7.40
2019-05-25T01:20:58.567Z,7.63
2019-05-25T01:26:03.210Z,7.83
2019-05-25T01:31:07.967Z,6.93
2019-05-25T01:36:12.542Z,7.10
2019-05-25T01:41:17.343Z,8.57
2019-05-25T01:46:21.924Z,8.10
2019-05-25T01:51:26.458Z,7.10
2019-05-25T01:56:31.035Z,7.95
2019-05-25T02:01:35.675Z,6.23
2019-05-25T02:06:40.394Z,8.40
2019-05-25T02:11:45.103Z,7.20
2019-05-25T02:16:49.707Z,9.17
2019-05-25T02:21:54.666Z,7.77
2019-05-25T02:26:59.477Z,7.40
2019-05-25T02:32:04.115Z,8.20
2019-05-25T02:37:08.851Z,6.97
2019-05-25T02:42:13.846Z,6.60
2019-05-25T02:47:18.455Z,6.53
2019-05-25T02:52:23.178Z,6.10
2019-05-25T02:57:27.803Z,6.97
2019-05-25T03:02:32.600Z,6.70
2019-05-25T03:07:37.599Z,6.00
2019-05-25T03:12:42.256Z,6.57
2019-05-25T03:17:46.887Z,6.85
2019-05-25T03:22:51.430Z,6.30
2019-05-25T03:27:56.075Z,6.50
2019-05-25T03:33:00.773Z,6.77
2019-05-25T03:38:05.418Z,6.30
2019-05-25T03:43:10.064Z,7.20
2019-05-25T03:48:14.724Z,7.97
2019-05-25T03:53:19.430Z,8.73
2019-05-25T03:58:23.995Z,8.87
2019-05-25T04:03:28.556Z,8.97
2019-05-25T04:08:33.086Z,8.15
2019-05-25T04:13:37.605Z,7.93
2019-05-25T04:18:42.261Z,7.60
2019-05-25T04:23:46.793Z,9.30
2019-05-25T04:28:51.449Z,8.80
2019-05-25T04:33:56.063Z,7.37
2019-05-25T04:39:00.780Z,7.27
2019-05-25T04:44:05.369Z,7.93
2019-05-25T04:49:09.866Z,7.80
2019-05-25T04:54:14.462Z,8.43
2019-05-25T04:59:19.195Z,8.77
2019-05-25T05:04:23.859Z,7.67
2019-05-25T05:09:29.770Z,7.27
2019-05-25T05:14:34.245Z,6.70
2019-05-25T05:19:38.781Z,6.77
2019-05-25T05:24:43.467Z,7.37
2019-05-25T05:29:48.206Z,9.80
2019-05-25T05:34:53.378Z,10.93
2019-05-25T05:39:58.590Z,12.90
2019-05-25T05:45:04.752Z,10.33
2019-05-25T05:50:10.758Z,7.83
2019-05-25T05:55:18.903Z,8.33
2019-05-25T06:00:23.611Z,9.30
2019-05-25T06:05:28.220Z,10.00
2019-05-25T06:10:32.887Z,8.98
2019-05-25T06:15:37.881Z,10.18
2019-05-25T06:20:43.221Z,9.17
2019-05-25T06:25:47.738Z,9.63
2019-05-25T06:30:52.436Z,8.20
2019-05-25T06:35:56.911Z,8.97
2019-05-25T06:41:01.615Z,8.13
2019-05-25T06:46:06.548Z,8.03
2019-05-25T06:51:10.990Z,8.53
2019-05-25T06:56:15.575Z,8.17
2019-05-25T07:01:20.208Z,8.53
2019-05-25T07:06:25.236Z,8.58
2019-05-25T07:11:29.931Z,8.33
2019-05-25T07:16:34.573Z,8.93
2019-05-25T07:21:39.531Z,8.63
2019-05-25T07:26:44.239Z,7.90
2019-05-25T07:31:48.844Z,8.37
2019-05-25T07:36:53.547Z,8.97
2019-05-25T07:41:58.248Z,9.03
2019-05-25T07:47:02.867Z,9.27
2019-05-25T07:52:07.495Z,8.70
2019-05-25T07:57:12.179Z,8.63
2019-05-25T08:02:16.988Z,9.93
2019-05-25T08:07:21.767Z,8.53
2019-05-25T08:12:27.983Z,9.20
2019-05-25T08:17:32.570Z,9.10
2019-05-25T08:22:37.224Z,9.03
2019-05-25T08:27:41.788Z,8.77
2019-05-25T08:32:46.324Z,11.50
2019-05-25T08:37:50.995Z,9.47
2019-05-25T08:42:55.815Z,6.80
2019-05-25T08:48:00.604Z,5.30
2019-05-25T08:53:05.572Z,4.87
2019-05-25T08:58:10.523Z,5.73
2019-05-25T09:03:15.447Z,4.37
2019-05-25T09:08:20.132Z,4.43
2019-05-25T09:13:25.294Z,4.70
2019-05-25T09:18:30.338Z,4.30
2019-05-25T09:23:35.065Z,3.80
2019-05-25T09:28:40.051Z,4.50
2019-05-25T09:33:44.818Z,5.00
2019-05-25T09:38:49.509Z,4.17
2019-05-25T09:43:54.466Z,3.57
2019-05-25T09:48:59.191Z,3.83
2019-05-25T09:54:03.919Z,3.57
2019-05-25T09:59:19.845Z,3.40
2019-05-25T10:04:15.186Z,3.77
2019-05-25T10:09:19.892Z,3.70
2019-05-25T10:14:24.833Z,4.37
2019-05-25T10:19:29.710Z,3.37
2019-05-25T10:24:34.599Z,3.77
2019-05-25T10:29:39.449Z,3.45
2019-05-25T10:34:44.103Z,3.70
2019-05-25T10:39:48.786Z,3.03
2019-05-25T10:44:54.724Z,2.70
2019-05-25T10:49:59.375Z,3.90
2019-05-25T10:55:04.139Z,4.03
2019-05-25T11:00:10.076Z,3.27
2019-05-25T11:05:15.599Z,4.40
2019-05-25T11:10:20.786Z,2.57
2019-05-25T11:15:26.012Z,1.43
2019-05-25T11:20:30.898Z,1.60
2019-05-25T11:25:35.821Z,1.10
2019-05-25T11:30:40.413Z,1.97
2019-05-25T11:35:46.007Z,1.97
2019-05-25T11:40:50.859Z,1.80
2019-05-25T11:45:55.510Z,2.40
2019-05-25T11:51:00.251Z,3.60
2019-05-25T11:56:04.887Z,2.70
2019-05-25T12:01:09.518Z,2.67
2019-05-25T12:06:14.110Z,2.60
2019-05-25T12:11:19.031Z,3.27
2019-05-25T12:16:23.630Z,2.77
2019-05-25T12:21:28.211Z,3.23
2019-05-25T12:26:32.851Z,1.70
2019-05-25T12:31:37.646Z,1.30
2019-05-25T12:36:42.437Z,2.23
2019-05-25T12:41:47.163Z,2.00
2019-05-25T12:46:51.898Z,2.93
2019-05-25T12:51:56.472Z,2.57
2019-05-25T12:57:02.784Z,2.50
2019-05-25T13:02:08.430Z,2.07
2019-05-25T13:07:13.099Z,1.53
2019-05-25T13:12:18.604Z,1.90
2019-05-25T13:17:23.491Z,1.90
2019-05-25T13:22:28.110Z,1.93
2019-05-25T13:27:32.839Z,0.70
2019-05-25T13:32:37.578Z,2.00
2019-05-25T13:37:42.300Z,3.43
2019-05-25T13:42:47.066Z,4.10
2019-05-25T13:47:51.852Z,6.40
2019-05-25T13:52:56.599Z,7.60
2019-05-25T13:58:01.328Z,11.33
2019-05-25T14:03:06.365Z,7.47
2019-05-25T14:08:11.073Z,9.67
2019-05-25T14:13:16.103Z,7.33
2019-05-25T14:18:20.823Z,7.35
2019-05-25T14:23:25.719Z,6.87
2019-05-25T14:28:30.667Z,6.13
2019-05-25T14:33:35.251Z,3.80
2019-05-25T14:38:39.970Z,6.13
2019-05-25T14:43:44.678Z,13.47
2019-05-25T14:48:49.867Z,8.27
2019-05-25T14:53:54.713Z,8.95
2019-05-25T14:58:59.583Z,7.70
2019-05-25T15:04:04.318Z,13.93
2019-05-25T15:09:09.498Z,16.10
2019-05-25T15:14:14.287Z,11.50
2019-05-25T15:19:18.996Z,13.25
2019-05-25T15:24:23.862Z,12.15
2019-05-25T15:29:28.631Z,10.67
2019-05-25T15:34:33.411Z,9.00
2019-05-25T15:39:38.544Z,9.57
2019-05-25T15:44:43.320Z,7.97
2019-05-25T15:49:47.970Z,8.17
2019-05-25T15:54:52.758Z,8.00
2019-05-25T15:59:57.396Z,7.37
2019-05-25T16:05:02.064Z,5.92
2019-05-25T16:10:07.843Z,6.35
2019-05-25T16:15:15.543Z,6.60
2019-05-25T16:20:23.159Z,6.53
2019-05-25T16:25:27.867Z,7.00
2019-05-25T16:30:32.583Z,7.07
2019-05-25T16:35:37.479Z,7.90
2019-05-25T16:40:42.541Z,8.55
2019-05-25T16:45:47.149Z,8.15
2019-05-25T16:50:52.046Z,7.20
2019-05-25T16:55:56.992Z,7.50
2019-05-25T17:01:01.975Z,6.83
2019-05-25T17:06:07.005Z,5.33
2019-05-25T17:11:11.792Z,4.97
2019-05-25T17:16:16.498Z,5.83
2019-05-25T17:21:21.980Z,5.87
2019-05-25T17:26:26.770Z,5.65
2019-05-25T17:31:31.411Z,5.75
2019-05-25T17:36:36.483Z,5.63
2019-05-25T17:41:41.130Z,6.90
2019-05-25T17:46:46.060Z,6.30
2019-05-25T17:51:50.798Z,7.07
2019-05-25T17:56:55.706Z,7.63
2019-05-25T18:02:00.399Z,5.83
2019-05-25T18:07:05.210Z,6.70
2019-05-25T18:12:10.023Z,7.40
2019-05-25T18:17:14.893Z,7.50
2019-05-25T18:22:19.851Z,6.03
2019-05-25T18:27:24.462Z,5.60
2019-05-25T18:32:29.293Z,5.60
2019-05-25T18:37:33.953Z,4.97
2019-05-25T18:42:38.812Z,6.60
2019-05-25T18:47:43.620Z,6.80
2019-05-25T18:52:48.391Z,5.80
2019-05-25T18:57:53.203Z,6.83
2019-05-25T19:02:58.711Z,5.10
2019-05-25T19:08:03.560Z,4.78
2019-05-25T19:13:08.281Z,5.40
2019-05-25T19:18:13.091Z,5.03
2019-05-25T19:23:18.198Z,4.87
2019-05-25T19:28:23.076Z,5.00
2019-05-25T19:33:28.180Z,4.47
2019-05-25T19:38:32.879Z,4.90
2019-05-25T19:43:37.634Z,4.47
2019-05-25T19:48:42.401Z,4.73
2019-05-25T19:53:47.118Z,4.70
2019-05-25T19:58:51.911Z,4.97
2019-05-25T20:03:57.590Z,4.93
2019-05-25T20:09:02.834Z,5.33
2019-05-25T20:14:07.973Z,8.07
2019-05-25T20:19:12.930Z,6.50
2019-05-25T20:24:18.072Z,6.77
2019-05-25T20:29:22.820Z,7.97
2019-05-25T20:34:27.536Z,6.23
2019-05-25T20:39:32.640Z,5.40
2019-05-25T20:44:37.459Z,14.17
2019-05-25T20:49:42.187Z,7.43
2019-05-25T20:54:47.099Z,7.07
2019-05-25T20:59:51.931Z,6.63
2019-05-25T21:04:56.620Z,6.27
2019-05-25T21:10:01.311Z,7.87
2019-05-25T21:15:06.493Z,6.07
2019-05-25T21:20:12.650Z,7.80
2019-05-25T21:25:18.638Z,6.80
2019-05-25T21:30:23.862Z,8.63
2019-05-25T21:35:28.670Z,7.10
2019-05-25T21:40:33.652Z,8.67
2019-05-25T21:45:38.546Z,9.77
2019-05-25T21:50:43.499Z,8.23
2019-05-25T21:55:48.230Z,9.20
2019-05-25T22:00:52.970Z,10.03
2019-05-25T22:05:57.799Z,10.63
2019-05-25T22:11:02.838Z,11.13
2019-05-25T22:16:07.568Z,8.80
2019-05-25T22:21:13.239Z,10.07
2019-05-25T22:26:18.310Z,7.80
2019-05-25T22:31:23.066Z,7.90
2019-05-25T22:36:39.792Z,7.37
2019-05-25T22:41:34.400Z,7.67
2019-05-25T22:46:39.182Z,6.80
2019-05-25T22:51:43.990Z,6.20
2019-05-25T22:56:48.708Z,6.27
2019-05-25T23:01:53.621Z,6.27
2019-05-25T23:06:58.706Z,7.80
2019-05-25T23:12:03.554Z,8.47
2019-05-25T23:17:08.339Z,9.07
2019-05-25T23:22:14.212Z,8.80
2019-05-25T23:27:19.159Z,9.13
2019-05-25T23:32:23.890Z,8.83
2019-05-25T23:37:28.553Z,6.50
2019-05-25T23:42:33.510Z,7.20
2019-05-25T23:47:38.559Z,7.20
2019-05-25T23:52:43.312Z,6.63
2019-05-25T23:57:47.991Z,5.77
